Time;durP1;ratioP1;P1;durP2;ratioP2;P2;SDS_P1;SDS_P2;PMS_P1;PMS_P2;Temp;Humidity;BMP_temperature;BMP_pressure;BME280_temperature;BME280_humidity;BME280_pressure;Samples;Min_cycle;Max_cycle;Signal;HPM_P1;HPM_P2
2022/05/23 00:02:09;;;;;;;7.65;7.35;;;;;;;21.16;53.43;101609.84;5034009;28;20021;-61
2022/05/23 00:04:36;;;;;;;7.85;7.55;;;;;;;21.14;52.91;101610.00;5033523;28;20112;-61
2022/05/23 00:07:02;;;;;;;7.47;7.18;;;;;;;21.15;53.39;101603.50;5033524;28;20117;-61
2022/05/23 00:09:29;;;;;;;7.55;7.25;;;;;;;21.19;52.55;101604.91;5033401;28;20022;-61
2022/05/23 00:11:54;;;;;;;7.68;7.38;;;;;;;21.20;52.04;101606.63;5033469;28;20104;-61
2022/05/23 00:14:19;;;;;;;7.40;7.10;;;;;;;21.20;52.39;101617.56;5033486;28;20049;-61
2022/05/23 00:16:49;;;;;;;8.13;7.82;;;;;;;21.18;52.52;101608.66;5033452;28;20064;-61
2022/05/23 00:19:15;;;;;;;8.13;7.65;;;;;;;21.22;52.36;101610.03;5033356;28;20048;-61
2022/05/23 00:21:42;;;;;;;7.47;7.07;;;;;;;21.24;52.42;101613.47;5033060;28;20374;-61
2022/05/23 00:24:09;;;;;;;7.78;7.38;;;;;;;21.22;52.20;101615.50;5035902;28;20104;-61
2022/05/23 00:26:36;;;;;;;7.40;7.10;;;;;;;21.25;51.54;101620.66;5033128;28;20036;-61
2022/05/23 00:29:01;;;;;;;7.28;6.97;;;;;;;21.25;52.36;101609.72;5033211;28;20030;-61
2022/05/23 00:31:27;;;;;;;7.68;7.30;;;;;;;21.23;51.68;101600.78;5033032;28;20056;-61
2022/05/23 00:36:36;;;;;;;7.63;7.33;;;;;;;21.25;51.39;101598.75;5032979;28;20121;-61
2022/05/23 00:39:02;;;;;;;7.40;7.05;;;;;;;21.26;51.69;101597.75;5033068;28;20096;-59
2022/05/23 00:44:23;;;;;;;7.25;6.90;;;;;;;21.21;51.70;101596.53;5033073;28;20036;-61
2022/05/23 00:46:58;;;;;;;7.68;7.28;;;;;;;21.26;51.41;101597.75;5032502;28;20071;-61
2022/05/23 00:49:27;;;;;;;8.20;7.90;;;;;;;21.29;51.67;101604.75;5032679;28;20031;-60
2022/05/23 00:51:54;;;;;;;7.53;7.13;;;;;;;21.23;50.74;101600.78;5032830;28;20029;-61
2022/05/23 00:54:21;;;;;;;7.65;7.35;;;;;;;21.25;51.56;101597.91;5032950;28;20491;-61
2022/05/23 00:56:49;;;;;;;7.68;7.28;;;;;;;21.28;51.67;101598.41;5032741;28;20044;-61
2022/05/23 00:59:19;;;;;;;7.57;7.18;;;;;;;21.27;51.31;101604.91;5035971;28;20517;-61
2022/05/23 01:01:45;;;;;;;7.63;7.32;;;;;;;21.24;50.65;101594.31;5035358;28;20536;-61
2022/05/23 01:04:10;;;;;;;7.82;7.43;;;;;;;21.27;51.22;101607.66;5032568;28;20113;-61
2022/05/23 01:06:36;;;;;;;7.78;7.47;;;;;;;21.25;50.89;101604.25;5032443;28;20108;-61
2022/05/23 01:09:03;;;;;;;7.30;7.00;;;;;;;21.27;51.59;101593.13;5032769;28;20033;-61
2022/05/23 01:11:28;;;;;;;7.43;7.10;;;;;;;21.28;51.05;101592.09;5032209;28;20025;-61
2022/05/23 01:13:53;;;;;;;8.07;7.63;;;;;;;21.27;51.14;101596.72;5032839;28;20037;-60
2022/05/23 01:16:21;;;;;;;7.97;7.57;;;;;;;21.28;51.32;101595.69;5032375;28;20475;-62
2022/05/23 01:18:47;;;;;;;7.20;6.90;;;;;;;21.28;51.07;101587.47;5032535;28;20031;-60
2022/05/23 01:21:22;;;;;;;7.80;7.50;;;;;;;21.27;50.98;101591.25;5032504;28;20032;-59
2022/05/23 01:23:54;;;;;;;8.25;7.85;;;;;;;21.29;51.11;101580.97;5032360;28;20028;-61
2022/05/23 01:26:20;;;;;;;7.50;7.20;;;;;;;21.25;51.10;101587.81;5032205;28;20315;-61
2022/05/23 01:28:45;;;;;;;7.95;7.60;;;;;;;21.26;50.74;101589.53;5032438;28;20049;-60
2022/05/23 01:31:12;;;;;;;7.53;7.13;;;;;;;21.28;50.59;101582.00;5032391;28;20021;-60
2022/05/23 01:33:38;;;;;;;7.40;7.10;;;;;;;21.27;50.48;101585.78;5032502;28;20025;-61
2022/05/23 01:36:05;;;;;;;7.97;7.57;;;;;;;21.27;50.93;101584.91;5032446;28;20062;-61
2022/05/23 01:38:30;;;;;;;7.60;7.10;;;;;;;21.27;51.79;101585.78;5032019;28;20472;-61
2022/05/23 01:40:57;;;;;;;7.75;7.45;;;;;;;21.28;51.40;101584.75;5032373;28;20030;-61
2022/05/23 01:43:23;;;;;;;7.90;7.50;;;;;;;21.27;50.50;101591.25;5032070;28;20029;-61
2022/05/23 01:45:48;;;;;;;7.25;6.95;;;;;;;21.26;50.94;101584.06;5035774;28;20028;-61
2022/05/23 01:48:14;;;;;;;8.02;7.68;;;;;;;21.29;51.20;101583.72;5032331;28;20025;-61
2022/05/23 01:50:39;;;;;;;7.18;6.88;;;;;;;21.29;51.10;101593.81;5032118;28;20465;-61
2022/05/23 01:53:05;;;;;;;7.30;7.00;;;;;;;21.28;51.56;101587.47;5032190;28;20049;-61
2022/05/23 01:55:31;;;;;;;7.60;7.20;;;;;;;21.29;51.33;101580.13;5031986;28;20457;-61
2022/05/23 01:57:56;;;;;;;7.55;6.93;;;;;;;21.26;50.51;101578.59;5032203;28;20580;-61
2022/05/23 02:03:06;;;;;;;7.40;7.10;;;;;;;21.26;50.63;101567.66;5036274;28;20075;-60
2022/05/23 02:05:33;;;;;;;7.28;6.97;;;;;;;21.29;51.97;101567.31;5035731;28;20022;-61
2022/05/23 02:07:59;;;;;;;7.30;7.00;;;;;;;21.28;51.30;101568.34;5035802;28;20036;-60
2022/05/23 02:10:24;;;;;;;7.55;7.25;;;;;;;21.26;51.20;101564.91;5035637;28;20396;-61
2022/05/23 02:12:49;;;;;;;8.18;7.68;;;;;;;21.26;51.33;101564.91;5035705;28;20373;-61
2022/05/23 02:15:16;;;;;;;7.18;6.82;;;;;;;21.27;51.47;101558.44;5035725;28;20419;-61
2022/05/23 02:17:42;;;;;;;7.80;7.40;;;;;;;21.28;51.26;101557.41;5035703;28;20063;-60
2022/05/23 02:20:09;;;;;;;7.70;7.38;;;;;;;21.26;50.47;101556.72;5036257;28;20029;-61
2022/05/23 02:22:34;;;;;;;7.38;7.07;;;;;;;21.28;51.57;101562.88;5035257;28;20071;-62
2022/05/23 02:25:01;;;;;;;7.40;7.10;;;;;;;21.30;51.50;101562.69;5035512;28;20036;-61
2022/05/23 02:27:27;;;;;;;7.60;7.20;;;;;;;21.29;51.14;101564.56;5035263;28;20029;-61
2022/05/23 02:29:53;;;;;;;7.65;7.25;;;;;;;21.29;51.69;101572.78;5037873;28;20033;-60
2022/05/23 02:32:18;;;;;;;7.60;7.20;;;;;;;21.28;51.70;101565.59;5043502;28;20029;-61
2022/05/23 02:34:43;;;;;;;8.30;7.90;;;;;;;21.26;51.49;101570.41;5035416;28;20472;-61
2022/05/23 02:37:09;;;;;;;7.50;7.20;;;;;;;21.29;51.50;101571.91;5035282;28;20013;-60
2022/05/23 02:39:34;;;;;;;7.82;7.43;;;;;;;21.28;50.88;101565.59;5035741;28;20489;-61
2022/05/23 02:42:01;;;;;;;7.80;7.30;;;;;;;21.28;50.83;101565.59;5035260;28;20027;-61
2022/05/23 02:44:26;;;;;;;7.93;7.63;;;;;;;21.28;51.09;101560.13;5034968;28;20025;-60
2022/05/23 02:46:51;;;;;;;7.60;7.30;;;;;;;21.26;51.01;101566.81;5035053;28;20488;-61
2022/05/23 02:49:18;;;;;;;7.35;6.95;;;;;;;21.26;50.65;101564.06;5035259;28;20354;-61
2022/05/23 02:51:43;;;;;;;7.30;7.00;;;;;;;21.25;51.09;101565.94;5035014;28;20058;-61
2022/05/23 02:54:08;;;;;;;7.47;7.18;;;;;;;21.26;51.09;101562.19;5034989;28;20458;-62
2022/05/23 02:56:34;;;;;;;7.13;6.78;;;;;;;21.28;51.25;101565.59;5034783;28;20021;-61
2022/05/23 02:58:59;;;;;;;8.00;7.70;;;;;;;21.28;51.73;101564.75;5034929;28;20452;-61
2022/05/23 03:01:25;;;;;;;7.68;7.38;;;;;;;21.25;51.24;101505.78;5034632;28;20033;-61
2022/05/23 03:03:50;;;;;;;8.05;7.60;;;;;;;21.30;51.56;101514.31;5034991;28;20032;-61
2022/05/23 03:06:16;;;;;;;7.53;7.22;;;;;;;21.29;52.62;101496.19;5034655;28;20032;-61
2022/05/23 03:08:42;;;;;;;7.60;7.28;;;;;;;21.34;53.25;101591.44;5037104;28;20029;-61
2022/05/23 03:11:08;;;;;;;7.70;7.40;;;;;;;21.29;52.48;101580.97;5035987;28;20037;-61
2022/05/23 03:13:35;;;;;;;7.82;7.50;;;;;;;21.28;52.38;101567.47;5034471;28;20034;-61
2022/05/23 03:16:01;;;;;;;7.45;7.15;;;;;;;21.28;52.37;101571.06;5034708;28;20127;-61
2022/05/23 03:18:26;;;;;;;7.45;7.15;;;;;;;21.28;52.28;101560.13;5033131;28;20374;-61
2022/05/23 03:20:56;;;;;;;7.70;7.40;;;;;;;21.29;52.50;101561.84;5034574;28;20036;-61
2022/05/23 03:28:50;;;;;;;7.50;7.20;;;;;;;21.29;52.63;101550.03;5034411;28;20072;-61
2022/05/23 03:31:15;;;;;;;7.50;7.20;;;;;;;21.28;52.26;101545.59;5034631;28;20034;-61
2022/05/23 03:33:41;;;;;;;8.00;7.60;;;;;;;21.27;52.06;101547.47;5034209;28;20064;-60
2022/05/23 03:36:08;;;;;;;7.70;7.40;;;;;;;21.27;52.80;101541.16;5034217;28;20439;-61
2022/05/23 03:38:34;;;;;;;7.85;7.50;;;;;;;21.30;53.56;101547.13;5034060;28;20018;-61
2022/05/23 03:41:08;;;;;;;7.60;7.30;;;;;;;21.29;52.65;101544.56;5034156;28;20024;-61
2022/05/23 03:43:33;;;;;;;7.28;6.97;;;;;;;21.30;52.90;101544.41;5033956;28;20028;-61
2022/05/23 03:46:10;;;;;;;7.65;7.30;;;;;;;21.26;52.92;101543.03;5034085;28;20108;-61
2022/05/23 03:48:35;;;;;;;7.80;7.50;;;;;;;21.24;53.55;101541.47;5033814;28;20018;-61
2022/05/23 03:51:01;;;;;;;7.90;7.40;;;;;;;21.30;53.94;101547.13;5035318;28;20041;-60
2022/05/23 03:53:27;;;;;;;7.20;6.90;;;;;;;21.31;53.46;101546.09;5033756;28;20100;-61
2022/05/23 03:55:52;;;;;;;8.18;7.68;;;;;;;21.29;54.11;101545.44;5033828;28;20451;-61
2022/05/23 03:58:18;;;;;;;7.80;7.47;;;;;;;21.30;54.10;101547.13;5033733;28;20021;-61
2022/05/23 04:00:48;;;;;;;7.13;6.82;;;;;;;21.29;54.79;101529.00;5033883;28;20025;-61
2022/05/23 04:03:15;;;;;;;1.05;0.40;;;;;;;21.77;53.93;101549.06;5033720;28;20485;-61
2022/05/23 04:05:41;;;;;;;1.80;0.60;;;;;;;22.12;53.60;101544.13;5033778;28;20026;-61
2022/05/23 04:08:08;;;;;;;0.30;0.30;;;;;;;22.37;53.01;101542.13;5033615;28;20032;-61
2022/05/23 04:10:33;;;;;;;0.40;0.30;;;;;;;22.58;52.98;101552.41;5033359;28;20029;-61
2022/05/23 04:13:01;;;;;;;0.50;0.30;;;;;;;22.77;52.18;101561.00;5033609;28;20104;-59
2022/05/23 04:15:27;;;;;;;0.38;0.30;;;;;;;22.93;52.11;101548.22;5033280;28;20075;-61
2022/05/23 04:17:52;;;;;;;0.80;0.30;;;;;;;23.05;52.51;101533.03;5033461;28;20476;-61
2022/05/23 04:20:18;;;;;;;1.98;0.50;;;;;;;23.18;52.79;101529.63;5033291;28;20036;-61
2022/05/23 04:22:43;;;;;;;0.20;0.20;;;;;;;23.30;53.42;101536.38;5032558;28;20052;-61
2022/05/23 04:25:09;;;;;;;0.82;0.30;;;;;;;23.39;53.58;101530.63;5033611;28;20377;-61
2022/05/23 04:27:35;;;;;;;0.38;0.30;;;;;;;23.55;54.29;101529.59;5033255;28;20057;-61
2022/05/23 04:30:00;;;;;;;2.03;0.50;;;;;;;23.61;54.22;101528.84;5037708;28;20029;-61
2022/05/23 04:35:15;;;;;;;0.73;0.47;;;;;;;23.79;55.56;101519.38;5033169;28;20036;-60
2022/05/23 04:37:44;;;;;;;0.20;0.20;;;;;;;23.88;55.54;101521.00;5033203;28;20458;-61
2022/05/23 04:40:11;;;;;;;0.20;0.20;;;;;;;23.97;55.86;101519.81;5033050;28;20025;-62
2022/05/23 04:42:36;;;;;;;0.63;0.60;;;;;;;24.03;56.52;101521.81;5032897;28;20116;-60
2022/05/23 04:45:01;;;;;;;0.43;0.28;;;;;;;24.06;57.19;101515.94;5032950;28;20490;-61
2022/05/23 04:50:11;;;;;;;0.30;0.30;;;;;;;24.18;58.39;101521.75;5032866;28;20071;-61
2022/05/23 04:52:36;;;;;;;0.95;0.20;;;;;;;24.27;58.21;101518.69;5032678;28;20124;-60
2022/05/23 04:55:02;;;;;;;0.20;0.20;;;;;;;23.72;57.82;101523.94;5032825;28;20026;-61
2022/05/23 04:57:27;;;;;;;0.50;0.20;;;;;;;23.15;57.37;101521.78;5032633;28;20022;-61
2022/05/23 04:59:53;;;;;;;0.30;0.30;;;;;;;22.92;56.17;101514.47;5032991;28;20025;-60
2022/05/23 05:02:18;;;;;;;0.85;0.30;;;;;;;22.74;54.72;101530.38;5032588;28;20513;-61
2022/05/23 05:04:43;;;;;;;0.57;0.30;;;;;;;22.61;52.71;101524.63;5032699;28;20056;-60
2022/05/23 05:07:09;;;;;;;0.20;0.20;;;;;;;22.38;52.05;101525.50;5032723;28;20026;-59
2022/05/23 05:09:34;;;;;;;0.95;0.30;;;;;;;22.24;51.14;101518.06;5033586;28;20362;-61
2022/05/23 05:12:00;;;;;;;0.55;0.30;;;;;;;22.10;50.36;101513.34;5032603;28;20389;-60
2022/05/23 05:14:27;;;;;;;0.65;0.40;;;;;;;22.07;50.39;101505.50;5027414;28;20457;-61
2022/05/23 05:16:52;;;;;;;0.55;0.30;;;;;;;21.99;49.69;101509.09;5029637;28;20030;-61
2022/05/23 05:19:18;;;;;;;0.45;0.30;;;;;;;21.94;51.77;101508.78;5031730;28;20021;-61
2022/05/23 05:21:45;;;;;;;0.35;0.32;;;;;;;21.83;49.80;101503.69;5032297;28;20050;-61
2022/05/23 05:24:10;;;;;;;0.65;0.20;;;;;;;21.92;49.62;101503.47;5031124;28;20392;-60
2022/05/23 05:26:35;;;;;;;1.92;0.30;;;;;;;21.87;51.04;101500.44;5032363;28;20029;-60
2022/05/23 05:29:02;;;;;;;1.25;0.32;;;;;;;21.87;49.58;101505.91;5032508;28;20469;-60
2022/05/23 05:31:31;;;;;;;0.30;0.30;;;;;;;21.95;49.18;101495.94;5032267;28;20029;-61
2022/05/23 05:34:03;;;;;;;1.10;0.30;;;;;;;21.78;50.13;101485.06;5033349;28;20108;-61
2022/05/23 05:36:33;;;;;;;0.57;0.20;;;;;;;21.88;50.39;101502.16;5036269;28;20068;-60
2022/05/23 05:39:04;;;;;;;0.55;0.40;;;;;;;21.80;49.60;101488.47;5036843;28;20128;-61
2022/05/23 05:41:36;;;;;;;1.77;0.20;;;;;;;21.87;50.92;101497.69;5036190;28;20026;-60
2022/05/23 05:44:05;;;;;;;0.20;0.20;;;;;;;21.74;50.68;101494.69;5039854;28;20036;-61
2022/05/23 05:46:36;;;;;;;0.30;0.30;;;;;;;21.86;51.22;101481.47;5036293;28;20449;-61
2022/05/23 05:49:05;;;;;;;0.57;0.30;;;;;;;21.85;50.17;101494.28;5036271;28;20041;-61
2022/05/23 05:51:33;;;;;;;0.70;0.20;;;;;;;21.78;49.69;101485.06;5036090;28;20483;-60
2022/05/23 05:53:59;;;;;;;0.45;0.40;;;;;;;21.84;50.44;101484.38;5036179;28;20065;-61
2022/05/23 05:56:24;;;;;;;0.22;0.20;;;;;;;21.74;51.88;101491.94;5035955;28;20401;-61
2022/05/23 05:58:49;;;;;;;0.55;0.30;;;;;;;21.74;51.33;101486.47;5036023;28;20476;-61
2022/05/23 06:01:14;;;;;;;0.47;0.20;;;;;;;21.80;50.29;101483.00;5036045;28;20033;-61
2022/05/23 06:03:40;;;;;;;1.38;0.40;;;;;;;21.80;49.96;101472.06;5035868;28;20503;-61
2022/05/23 06:11:33;;;;;;;1.88;0.20;;;;;;;21.77;50.74;101488.84;5035544;28;20147;-61
2022/05/23 06:14:03;;;;;;;0.30;0.20;;;;;;;21.63;50.81;101492.31;5036058;28;20059;-61
2022/05/23 06:16:32;;;;;;;0.65;0.30;;;;;;;21.88;51.09;101485.72;5035529;28;20024;-60
2022/05/23 06:18:57;;;;;;;0.28;0.10;;;;;;;21.82;50.46;101486.41;5034302;28;20116;-61
2022/05/23 06:21:24;;;;;;;0.40;0.20;;;;;;;21.91;51.02;101479.03;5035684;28;20504;-60
2022/05/23 06:23:50;;;;;;;0.10;0.10;;;;;;;21.70;50.16;101476.91;5035514;28;20029;-61
2022/05/23 06:26:18;;;;;;;0.43;0.10;;;;;;;21.74;50.90;101478.25;5035705;28;20032;-60
2022/05/23 06:28:44;;;;;;;0.15;0.15;;;;;;;21.81;50.71;101481.13;5035433;28;20061;-61
2022/05/23 06:31:11;;;;;;;0.75;0.47;;;;;;;21.75;50.06;101490.91;5035432;28;20495;-61
2022/05/23 06:33:37;;;;;;;0.35;0.20;;;;;;;21.83;50.38;101488.13;5035206;28;20032;-61
2022/05/23 06:36:05;;;;;;;0.10;0.10;;;;;;;21.80;51.69;101488.47;5035362;28;20148;-61
2022/05/23 06:38:31;;;;;;;0.77;0.20;;;;;;;21.70;50.96;101490.59;5034985;28;20035;-60
2022/05/23 06:40:56;;;;;;;0.10;0.10;;;;;;;21.73;52.03;101482.03;5035231;28;20029;-61
2022/05/23 06:43:21;;;;;;;0.20;0.10;;;;;;;21.80;52.46;101480.28;5035022;28;20029;-61
2022/05/23 06:45:47;;;;;;;0.20;0.10;;;;;;;21.72;51.38;101485.78;5034657;28;20021;-60
2022/05/23 06:48:13;;;;;;;0.63;0.40;;;;;;;21.71;52.01;101478.63;5034993;28;20026;-61
2022/05/23 06:50:38;;;;;;;0.30;0.30;;;;;;;21.69;52.01;101475.22;5034926;28;20366;-61
2022/05/23 06:53:04;;;;;;;1.88;0.15;;;;;;;21.70;51.35;101476.06;5034966;28;20033;-61
2022/05/23 06:55:30;;;;;;;1.20;0.28;;;;;;;21.77;51.87;101472.41;5034779;28;20040;-60
2022/05/23 06:57:55;;;;;;;1.02;0.38;;;;;;;21.76;51.33;101473.47;5034917;28;20469;-60
2022/05/23 07:00:21;;;;;;;0.40;0.20;;;;;;;21.86;50.86;101476.84;5034605;28;20112;-61
2022/05/23 07:02:46;;;;;;;0.52;0.38;;;;;;;21.72;50.84;101480.31;5034891;28;20466;-61
2022/05/23 07:13:24;;;;;;;0.10;0.10;;;;;;;21.64;51.34;101472.13;5034649;28;20071;-60
2022/05/23 07:15:49;;;;;;;2.88;0.40;;;;;;;21.70;51.93;101471.44;5034619;28;20084;-60
2022/05/23 07:18:16;;;;;;;0.40;0.30;;;;;;;21.79;52.27;101475.81;5034555;28;20053;-60
2022/05/23 07:20:42;;;;;;;0.73;0.25;;;;;;;21.74;50.83;101474.66;5034479;28;20526;-60
2022/05/23 07:23:08;;;;;;;0.82;0.40;;;;;;;21.75;51.46;101471.75;5034336;28;20045;-60
2022/05/23 07:25:33;;;;;;;0.30;0.22;;;;;;;21.75;51.73;101463.53;5034210;28;20026;-60
2022/05/23 07:27:59;;;;;;;0.40;0.32;;;;;;;21.76;52.41;101465.25;5034481;28;20389;-60
2022/05/23 07:30:24;;;;;;;0.47;0.38;;;;;;;21.74;51.50;101460.97;5034159;28;20031;-60
2022/05/23 07:32:49;;;;;;;1.08;0.30;;;;;;;21.71;51.60;101464.09;5034268;28;20047;-60
2022/05/23 07:35:16;;;;;;;1.30;0.50;;;;;;;21.73;52.03;101460.13;5034522;28;20028;-61
2022/05/23 07:37:42;;;;;;;1.58;0.40;;;;;;;21.66;52.55;101456.38;5034402;28;20032;-60
2022/05/23 07:40:08;;;;;;;0.70;0.30;;;;;;;21.81;52.04;101451.00;5034186;28;20029;-61
2022/05/23 07:42:33;;;;;;;0.77;0.35;;;;;;;21.81;51.25;101446.38;5033896;28;20029;-60
2022/05/23 07:44:58;;;;;;;1.65;0.57;;;;;;;21.78;51.45;101448.63;5034153;28;20072;-60
2022/05/23 07:47:24;;;;;;;0.10;0.10;;;;;;;21.71;52.10;101445.78;5033810;28;20071;-61
2022/05/23 07:49:50;;;;;;;0.55;0.20;;;;;;;21.70;51.39;101449.56;5033981;28;20029;-61
2022/05/23 07:52:16;;;;;;;0.65;0.20;;;;;;;21.76;50.71;101448.81;5033835;28;20068;-61
2022/05/23 08:02:53;;;;;;;0.57;0.30;;;;;;;21.71;51.14;101458.63;5033882;28;20032;-60
2022/05/23 08:05:19;;;;;;;0.20;0.20;;;;;;;21.75;51.85;101452.59;5033915;28;20029;-61
2022/05/23 08:07:44;;;;;;;0.52;0.35;;;;;;;21.71;51.45;101456.72;5033509;28;20076;-61
2022/05/23 08:10:10;;;;;;;0.28;0.20;;;;;;;21.72;53.82;101463.06;5033555;28;20063;-60
2022/05/23 08:12:36;;;;;;;0.32;0.15;;;;;;;21.77;51.89;101455.16;5033328;28;20025;-61
2022/05/23 08:15:04;;;;;;;1.67;0.57;;;;;;;21.82;51.77;101447.25;5033521;28;20072;-60
2022/05/23 08:17:29;;;;;;;0.20;0.10;;;;;;;21.81;50.72;101445.53;5033304;28;20504;-61
2022/05/23 08:19:55;;;;;;;0.65;0.10;;;;;;;21.74;50.81;101448.16;5033514;28;20037;-61
2022/05/23 08:22:20;;;;;;;1.65;0.20;;;;;;;21.72;51.43;101449.38;5032957;28;20466;-61
2022/05/23 08:24:46;;;;;;;0.20;0.20;;;;;;;21.83;50.91;101452.53;5033548;28;20017;-60
2022/05/23 08:27:11;;;;;;;0.80;0.20;;;;;;;21.74;52.43;101444.56;5033200;28;20029;-60
2022/05/23 08:29:37;;;;;;;1.20;0.20;;;;;;;21.82;51.89;101442.63;5033090;28;20033;-61
2022/05/23 08:32:07;;;;;;;0.63;0.30;;;;;;;21.61;52.00;101439.66;5033157;28;20036;-60
2022/05/23 08:34:33;;;;;;;0.35;0.20;;;;;;;21.66;51.70;101442.69;5032927;28;20025;-60
2022/05/23 08:36:58;;;;;;;0.60;0.43;;;;;;;21.71;50.60;101440.31;5033062;28;20017;-60
2022/05/23 08:39:25;;;;;;;0.93;0.40;;;;;;;21.87;52.17;101440.22;5032785;28;20325;-60
2022/05/23 08:41:52;;;;;;;0.20;0.20;;;;;;;21.73;53.09;101440.97;5033101;28;20021;-60
2022/05/23 08:44:46;;;;;;;1.73;0.22;;;;;;;21.77;51.35;101434.09;5032948;28;20104;-60
2022/05/23 08:47:30;;;;;;;;;;;;;;;21.69;51.90;101436.91;5033505;28;20033;-60
2022/05/23 08:50:33;;;;;;;1.05;0.32;;;;;;;21.77;52.57;101434.09;5037252;28;19988;-60
2022/05/23 08:53:11;;;;;;;0.45;0.30;;;;;;;21.72;51.38;101436.53;4990847;28;20038;-60
2022/05/23 08:55:41;;;;;;;1.05;0.20;;;;;;;21.74;52.14;101433.63;4990846;28;20052;-61
2022/05/23 08:58:47;;;;;;;0.30;0.20;;;;;;;21.70;52.10;101430.41;4990987;28;20030;-60
2022/05/23 09:01:19;;;;;;;0.80;0.32;;;;;;;21.67;52.17;101433.50;4990690;28;20105;-60
2022/05/23 09:03:53;;;;;;;0.28;0.28;;;;;;;21.73;52.37;101426.44;4990920;28;20055;-60
2022/05/23 09:06:29;;;;;;;0.52;0.30;;;;;;;21.78;50.67;101429.47;4990684;28;20026;-61
2022/05/23 09:08:58;;;;;;;0.40;0.20;;;;;;;21.77;51.83;101425.91;4990676;28;20125;-60
2022/05/23 09:11:45;;;;;;;0.68;0.30;;;;;;;21.77;52.11;101420.41;4990805;28;20029;-60
2022/05/23 09:14:14;;;;;;;1.38;0.52;;;;;;;21.70;51.32;101416.72;4990909;28;20044;-60
2022/05/23 09:16:44;;;;;;;0.82;0.30;;;;;;;21.76;52.05;101415.97;4990931;28;20076;-60
2022/05/23 09:19:18;;;;;;;1.05;0.30;;;;;;;21.73;51.30;101408.13;4988689;28;20057;-60
2022/05/23 09:24:51;;;;;;;0.77;0.22;;;;;;;21.67;51.36;101417.06;5010231;28;19956;-61
2022/05/23 09:27:21;;;;;;;1.65;0.43;;;;;;;21.72;51.90;101414.66;4995337;28;20056;-60
2022/05/23 09:29:52;;;;;;;2.05;0.40;;;;;;;21.73;52.58;101420.97;5032800;28;20117;-60
2022/05/23 09:32:22;;;;;;;0.45;0.17;;;;;;;21.75;52.06;101414.28;5032385;28;20532;-60
2022/05/23 09:35:00;;;;;;;0.98;0.50;;;;;;;21.79;53.28;101420.25;5032376;28;20580;-60
2022/05/23 09:37:42;;;;;;;0.20;0.20;;;;;;;21.72;52.07;101411.91;5034993;28;20014;-60
2022/05/23 09:40:12;;;;;;;0.55;0.30;;;;;;;21.81;52.75;101408.06;5024860;28;21298;-60
2022/05/23 09:48:21;;;;;;;0.98;0.20;;;;;;;21.70;51.00;101403.03;5032035;28;20432;-60
2022/05/23 09:51:02;;;;;;;0.95;0.38;;;;;;;21.73;51.52;101396.34;5035335;28;20064;-60
2022/05/23 09:53:31;;;;;;;0.60;0.40;;;;;;;21.73;52.49;101394.44;5041135;28;20174;-60
2022/05/23 09:56:31;;;;;;;0.40;0.40;;;;;;;21.76;50.85;101383.13;5051489;28;20036;-60
2022/05/23 09:59:01;;;;;;;0.82;0.30;;;;;;;21.71;50.58;101384.72;5051677;28;20104;-59
2022/05/23 10:01:29;;;;;;;0.20;0.20;;;;;;;21.79;51.73;101384.66;5051512;28;20456;-59
2022/05/23 10:03:55;;;;;;;0.30;0.30;;;;;;;21.72;50.99;101381.81;5051965;28;20033;-59
2022/05/23 10:06:46;;;;;;;0.40;0.30;;;;;;;21.72;51.36;101381.81;5051443;28;20021;-60
2022/05/23 10:09:24;;;;;;;0.30;0.20;;;;;;;21.65;52.26;101369.00;5051762;28;20387;-60
2022/05/23 10:12:01;;;;;;;3.00;0.70;;;;;;;21.73;53.58;101386.25;5051852;28;20104;-60
2022/05/23 10:14:42;;;;;;;0.75;0.30;;;;;;;21.64;52.36;101379.09;5051652;28;20064;-59
2022/05/23 10:17:08;;;;;;;0.63;0.30;;;;;;;21.66;52.13;101382.50;5051897;28;20476;-59
2022/05/23 10:19:38;;;;;;;0.10;0.10;;;;;;;21.86;53.11;101378.28;5051956;28;20460;-59
2022/05/23 10:22:22;;;;;;;0.40;0.30;;;;;;;21.88;52.44;101370.75;5055396;28;20271;-60
2022/05/23 10:24:56;;;;;;;0.77;0.28;;;;;;;21.76;51.78;101369.47;5060695;28;20029;-62
2022/05/23 10:27:36;;;;;;;0.35;0.10;;;;;;;21.79;51.12;101371.81;5055590;28;20037;-59
2022/05/23 10:30:06;;;;;;;0.40;0.30;;;;;;;21.80;52.32;101368.06;5055732;28;20028;-60
2022/05/23 10:32:49;;;;;;;1.05;0.30;;;;;;;21.85;50.83;101371.13;5055110;28;20031;-59
2022/05/23 10:35:22;;;;;;;0.93;0.30;;;;;;;21.82;51.39;101365.97;5055164;28;20024;-60
2022/05/23 10:37:50;;;;;;;0.32;0.20;;;;;;;21.77;51.86;101362.94;5055151;28;20124;-60
2022/05/23 10:43:20;;;;;;;0.63;0.32;;;;;;;21.72;51.90;101354.44;5055521;28;20490;-60
2022/05/23 10:45:51;;;;;;;0.10;0.10;;;;;;;21.80;51.82;101362.56;5055082;28;20029;-60
2022/05/23 10:48:36;;;;;;;1.00;0.50;;;;;;;21.72;52.45;101359.06;5054924;28;20479;-60
2022/05/23 10:51:42;;;;;;;0.75;0.40;;;;;;;21.76;51.78;101350.28;5055099;28;20036;-59
2022/05/23 10:54:14;;;;;;;;;;;;;;;21.71;52.06;101351.88;5013189;28;20076;-59
2022/05/23 10:56:55;;;;;;;1.17;0.30;;;;;;;21.76;52.11;101344.81;4996010;28;19920;-59
2022/05/23 10:59:41;;;;;;;1.25;0.20;;;;;;;21.76;51.44;101339.34;4991863;28;20057;-59
2022/05/23 11:02:22;;;;;;;1.75;0.70;;;;;;;21.85;52.72;101342.91;5003813;28;20370;-59
2022/05/23 11:05:39;;;;;;;0.50;0.45;;;;;;;21.73;53.60;101338.88;5012636;28;20089;-59
2022/05/23 11:08:16;;;;;;;0.85;0.30;;;;;;;21.69;52.15;101343.88;4930298;29;20175;-59
2022/05/23 11:10:51;;;;;;;0.32;0.30;;;;;;;21.76;52.16;101339.34;4925421;29;20126;-59
2022/05/23 11:13:45;;;;;;;0.30;0.25;;;;;;;21.77;51.54;101335.56;4919353;29;20055;-59
2022/05/23 11:16:27;;;;;;;0.43;0.30;;;;;;;21.90;51.75;101330.34;4923499;29;20067;-60
2022/05/23 11:19:01;;;;;;;0.40;0.20;;;;;;;21.84;51.71;101339.31;4922286;29;20087;-59
2022/05/23 11:21:29;;;;;;;0.65;0.28;;;;;;;21.78;51.96;101334.53;4914839;29;20054;-59
2022/05/23 11:24:06;;;;;;;0.20;0.20;;;;;;;21.71;51.91;101341.78;4915197;29;20067;-60
2022/05/23 11:26:37;;;;;;;0.30;0.30;;;;;;;21.82;52.65;101343.22;4914149;29;20055;-60
2022/05/23 11:34:54;;;;;;;0.57;0.30;;;;;;;21.73;51.97;101341.59;4952093;29;20019;-59
2022/05/23 11:39:58;;;;;;;0.10;0.10;;;;;;;21.81;51.94;101331.44;4953115;29;20058;-59
2022/05/23 11:42:29;;;;;;;;;;;;;;;21.75;51.71;101334.91;4951655;29;20070;-60
2022/05/23 11:45:00;;;;;;;0.30;0.30;;;;;;;21.79;51.41;101328.03;4986956;28;20304;-59
2022/05/23 11:47:46;;;;;;;1.65;0.40;;;;;;;21.74;52.97;101324.16;5033608;28;20469;-60
2022/05/23 11:50:26;;;;;;;1.23;0.25;;;;;;;21.79;52.48;101316.22;5033217;28;20035;-60
2022/05/23 11:53:06;;;;;;;0.20;0.20;;;;;;;21.83;53.53;101315.69;5033086;28;20069;-60
2022/05/23 11:55:50;;;;;;;0.98;0.20;;;;;;;21.80;51.46;101313.31;5032372;28;20028;-60
2022/05/23 11:58:26;;;;;;;1.08;0.20;;;;;;;21.86;53.51;101311.75;5030991;28;20034;-60
2022/05/23 12:01:04;;;;;;;0.30;0.30;;;;;;;21.85;52.00;101310.91;5035855;28;20037;-59
2022/05/23 12:03:55;;;;;;;1.40;0.17;;;;;;;21.90;52.90;101311.19;5031150;28;20026;-60
2022/05/23 12:06:24;;;;;;;0.30;0.20;;;;;;;21.83;52.43;101318.41;5032801;28;20040;-60
2022/05/23 12:09:04;;;;;;;1.08;0.22;;;;;;;21.89;53.63;101314.13;5032980;28;20038;-60
2022/05/23 12:11:38;;;;;;;1.48;0.57;;;;;;;21.89;52.19;101305.91;5032938;28;20051;-60
2022/05/23 12:14:31;;;;;;;0.47;0.30;;;;;;;21.79;51.94;101300.66;5032258;28;20053;-59
2022/05/23 12:16:57;;;;;;;0.10;0.10;;;;;;;21.78;51.87;101298.97;5032798;28;20017;-59
2022/05/23 12:19:32;;;;;;;1.67;0.20;;;;;;;21.83;52.68;101302.00;5032722;28;20051;-59
2022/05/23 12:22:32;;;;;;;0.50;0.20;;;;;;;21.93;52.21;101305.34;5033610;23;20477;-59
2022/05/23 12:25:09;;;;;;;0.65;0.30;;;;;;;21.85;50.82;101305.44;5019589;28;20021;-59
2022/05/23 12:27:43;;;;;;;0.35;0.10;;;;;;;21.92;51.33;101300.06;5030183;28;20092;-61
2022/05/23 12:30:22;;;;;;;1.48;0.47;;;;;;;21.87;51.47;101303.34;5023308;28;20045;-59
2022/05/23 12:32:50;;;;;;;0.28;0.20;;;;;;;21.98;52.58;101292.97;5023377;28;20029;-60
2022/05/23 12:35:19;;;;;;;1.17;0.30;;;;;;;21.87;51.74;101292.41;5033074;28;20033;-60
2022/05/23 12:38:05;;;;;;;0.20;0.20;;;;;;;21.85;51.48;101291.75;5023978;28;20049;-59
2022/05/23 12:40:39;;;;;;;0.90;0.25;;;;;;;21.87;52.37;101286.94;5012108;28;20025;-60